createdAt,value
2022-09-26T00:00:47.827Z,2.33
2022-09-26T00:02:51.341Z,7.97
2022-09-26T00:04:56.271Z,5.60
2022-09-26T00:06:58.586Z,3.85
2022-09-26T00:09:00.718Z,2.42
2022-09-26T00:11:08.705Z,5.20
2022-09-26T00:13:10.889Z,6.30
2022-09-26T00:15:19.365Z,6.47
2022-09-26T00:17:21.834Z,3.75
2022-09-26T00:19:23.970Z,3.22
2022-09-26T00:21:28.294Z,1.80
2022-09-26T00:23:30.308Z,3.97
2022-09-26T00:25:32.348Z,5.25
2022-09-26T00:27:34.320Z,5.22
2022-09-26T00:29:36.624Z,6.15
2022-09-26T00:31:41.943Z,5.97
2022-09-26T00:33:45.229Z,6.80
2022-09-26T00:35:52.768Z,4.03
2022-09-26T00:37:54.869Z,3.15
2022-09-26T00:39:56.900Z,4.85
2022-09-26T00:41:59.181Z,1.67
2022-09-26T00:44:01.619Z,2.33
2022-09-26T00:46:25.227Z,5.03
2022-09-26T00:48:28.918Z,3.63
2022-09-26T00:50:55.417Z,2.95
2022-09-26T00:53:06.027Z,2.78
2022-09-26T00:55:11.836Z,3.20
2022-09-26T00:57:21.719Z,3.50
2022-09-26T00:59:29.499Z,1.65
2022-09-26T01:01:31.710Z,2.30
2022-09-26T01:03:38.033Z,3.92
2022-09-26T01:05:40.459Z,4.38
2022-09-26T01:07:44.070Z,2.47
2022-09-26T01:09:48.329Z,2.00
2022-09-26T01:11:50.282Z,5.57
2022-09-26T01:13:54.198Z,4.22
2022-09-26T01:15:55.822Z,2.15
2022-09-26T01:17:58.149Z,3.67
2022-09-26T01:20:09.720Z,1.88
2022-09-26T01:22:17.810Z,5.78
2022-09-26T01:24:52.666Z,3.63
2022-09-26T01:27:04.616Z,5.72
2022-09-26T01:29:48.694Z,2.90
2022-09-26T01:32:41.343Z,2.75
2022-09-26T01:34:59.692Z,3.25
2022-09-26T01:37:14.757Z,2.20
2022-09-26T01:39:35.129Z,4.88
2022-09-26T01:41:45.554Z,7.53
2022-09-26T01:43:53.513Z,3.95
2022-09-26T01:46:12.152Z,3.30
2022-09-26T01:48:19.669Z,3.55
2022-09-26T01:50:56.080Z,4.07
2022-09-26T01:53:16.420Z,1.92
2022-09-26T01:55:25.680Z,5.15
2022-09-26T01:57:37.887Z,5.60
2022-09-26T01:59:51.529Z,4.13
2022-09-26T02:01:59.539Z,3.15
2022-09-26T02:04:09.103Z,2.05
2022-09-26T02:06:18.888Z,4.60
2022-09-26T02:08:25.305Z,3.08
2022-09-26T02:11:03.922Z,3.08
2022-09-26T02:13:16.772Z,2.53
2022-09-26T02:15:22.204Z,2.20
2022-09-26T02:17:33.525Z,3.70
2022-09-26T02:20:00.867Z,3.95
2022-09-26T02:22:03.364Z,1.58
2022-09-26T02:24:05.518Z,3.60
2022-09-26T02:26:07.901Z,3.33
2022-09-26T02:28:09.874Z,3.83
2022-09-26T02:30:12.489Z,2.70
2022-09-26T02:32:21.508Z,4.50
2022-09-26T02:34:25.756Z,3.10
2022-09-26T02:36:29.127Z,3.47
2022-09-26T02:38:31.974Z,4.47
2022-09-26T02:40:58.119Z,5.65
2022-09-26T02:43:20.743Z,2.78
2022-09-26T02:45:45.522Z,4.03
2022-09-26T02:48:27.687Z,2.58
2022-09-26T02:50:49.552Z,2.75
2022-09-26T02:53:20.874Z,2.10
2022-09-26T02:55:23.021Z,3.22
2022-09-26T02:57:52.815Z,3.88
2022-09-26T03:00:01.953Z,3.08
2022-09-26T03:02:09.773Z,4.35
2022-09-26T03:04:23.761Z,4.00
2022-09-26T03:06:33.281Z,3.40
2022-09-26T03:08:43.894Z,3.63
2022-09-26T03:10:58.264Z,2.58
2022-09-26T03:13:11.380Z,4.00
2022-09-26T03:15:14.954Z,2.78
2022-09-26T03:17:19.130Z,6.82
2022-09-26T03:19:39.596Z,2.60
2022-09-26T03:21:41.729Z,4.95
2022-09-26T03:23:44.340Z,6.75
2022-09-26T03:25:48.720Z,1.15
2022-09-26T03:27:52.429Z,5.53
2022-09-26T03:29:54.476Z,5.07
2022-09-26T03:31:56.647Z,6.20
2022-09-26T03:33:58.858Z,1.60
2022-09-26T03:36:05.378Z,3.78
2022-09-26T03:38:10.219Z,3.10
2022-09-26T03:40:15.877Z,5.55
2022-09-26T03:42:17.920Z,6.35
2022-09-26T03:44:19.920Z,3.33
2022-09-26T03:46:21.918Z,3.92
2022-09-26T03:48:23.890Z,9.27
2022-09-26T03:50:25.708Z,4.28
2022-09-26T03:52:27.872Z,5.53
2022-09-26T03:54:30.511Z,4.93
2022-09-26T03:56:32.761Z,4.63
2022-09-26T03:58:34.846Z,3.67
2022-09-26T04:00:39.131Z,6.78
2022-09-26T04:02:41.488Z,0.95
2022-09-26T04:04:43.575Z,3.13
2022-09-26T04:06:45.700Z,3.28
2022-09-26T04:08:49.773Z,3.03
2022-09-26T04:10:51.901Z,4.88
2022-09-26T04:12:53.858Z,3.22
2022-09-26T04:15:08.044Z,4.00
2022-09-26T04:17:11.006Z,3.33
2022-09-26T04:19:14.097Z,5.13
2022-09-26T04:21:16.507Z,5.50
2022-09-26T04:23:18.464Z,5.22
2022-09-26T04:25:20.979Z,4.65
2022-09-26T04:27:26.805Z,2.22
2022-09-26T04:29:29.415Z,3.40
2022-09-26T04:31:31.399Z,4.50
2022-09-26T04:33:34.084Z,2.33
2022-09-26T04:35:36.277Z,3.75
2022-09-26T04:37:38.348Z,2.35
2022-09-26T04:39:40.831Z,3.08
2022-09-26T04:41:43.081Z,8.00
2022-09-26T04:43:45.684Z,4.93
2022-09-26T04:45:47.938Z,3.78
2022-09-26T04:47:50.686Z,2.22
2022-09-26T04:49:52.746Z,6.10
2022-09-26T04:51:54.358Z,5.13
2022-09-26T04:53:56.789Z,2.45
2022-09-26T04:55:59.273Z,5.10
2022-09-26T04:58:02.665Z,7.00
2022-09-26T05:00:07.560Z,3.22
2022-09-26T05:02:10.228Z,2.80
2022-09-26T05:04:13.006Z,4.57
2022-09-26T05:06:17.776Z,5.20
2022-09-26T05:08:20.108Z,3.97
2022-09-26T05:10:22.041Z,2.80
2022-09-26T05:12:24.115Z,3.22
2022-09-26T05:14:26.125Z,4.65
2022-09-26T05:16:28.535Z,4.03
2022-09-26T05:18:30.727Z,5.30
2022-09-26T05:20:32.931Z,2.28
2022-09-26T05:22:34.999Z,5.88
2022-09-26T05:24:59.157Z,4.07
2022-09-26T05:27:01.203Z,4.15
2022-09-26T05:29:08.572Z,4.72
2022-09-26T05:31:11.292Z,2.90
2022-09-26T05:33:13.666Z,1.45
2022-09-26T05:35:15.745Z,4.20
2022-09-26T05:37:17.666Z,6.78
2022-09-26T05:39:42.309Z,2.55
2022-09-26T05:41:44.703Z,3.17
2022-09-26T05:43:48.116Z,2.65
2022-09-26T05:45:50.710Z,3.15
2022-09-26T05:47:52.868Z,2.10
2022-09-26T05:49:55.179Z,11.48
2022-09-26T05:51:57.659Z,7.20
2022-09-26T05:53:59.425Z,2.55
2022-09-26T05:56:01.879Z,3.15
2022-09-26T05:58:05.873Z,3.00
2022-09-26T06:00:08.990Z,2.28
2022-09-26T06:02:14.309Z,1.40
2022-09-26T06:04:19.419Z,1.02
2022-09-26T06:06:22.133Z,7.05
2022-09-26T06:08:24.150Z,3.50
2022-09-26T06:10:26.076Z,4.25
2022-09-26T06:12:28.443Z,3.40
2022-09-26T06:14:30.452Z,1.77
2022-09-26T06:16:33.152Z,2.88
2022-09-26T06:18:38.810Z,2.33
2022-09-26T06:20:40.883Z,3.10
2022-09-26T06:22:44.135Z,2.50
2022-09-26T06:24:45.762Z,2.20
2022-09-26T06:26:48.110Z,2.22
2022-09-26T06:29:01.035Z,5.45
2022-09-26T06:31:15.518Z,1.73
2022-09-26T06:33:17.590Z,3.25
2022-09-26T06:35:21.688Z,4.10
2022-09-26T06:37:23.788Z,1.70
2022-09-26T06:39:31.674Z,3.22
2022-09-26T06:41:35.416Z,2.33
2022-09-26T06:43:37.504Z,2.08
2022-09-26T06:45:39.678Z,1.85
2022-09-26T06:47:41.721Z,2.20
2022-09-26T06:49:46.729Z,1.60
2022-09-26T06:51:51.667Z,4.35
2022-09-26T06:53:53.858Z,1.30
2022-09-26T06:56:03.943Z,1.40
2022-09-26T06:58:05.899Z,1.02
2022-09-26T07:00:13.586Z,3.83
2022-09-26T07:02:17.083Z,5.00
2022-09-26T07:04:19.136Z,1.70
2022-09-26T07:06:21.759Z,3.28
2022-09-26T07:08:43.263Z,1.15
2022-09-26T07:10:47.591Z,2.05
2022-09-26T07:12:54.838Z,1.70
2022-09-26T07:15:00.930Z,2.75
2022-09-26T07:17:02.946Z,3.42
2022-09-26T07:19:05.031Z,2.45
2022-09-26T07:21:07.946Z,2.17
2022-09-26T07:23:11.411Z,4.88
2022-09-26T07:25:15.941Z,4.05
2022-09-26T07:27:18.430Z,3.80
2022-09-26T07:29:20.572Z,8.40
2022-09-26T07:31:26.914Z,3.42
2022-09-26T07:33:29.088Z,2.83
2022-09-26T07:35:32.586Z,2.28
2022-09-26T07:37:34.694Z,2.58
2022-09-26T07:39:36.892Z,2.30
2022-09-26T07:41:39.086Z,5.03
2022-09-26T07:46:31.823Z,2.83
2022-09-26T07:48:52.143Z,5.10
2022-09-26T07:51:00.113Z,2.47
2022-09-26T07:53:03.165Z,5.10
2022-09-26T07:55:07.677Z,7.93
2022-09-26T07:57:09.374Z,3.88
2022-09-26T07:59:11.048Z,5.80
2022-09-26T08:01:15.291Z,5.72
2022-09-26T08:03:18.133Z,6.03
2022-09-26T08:05:24.645Z,3.80
2022-09-26T08:07:26.371Z,7.03
2022-09-26T08:09:28.745Z,7.57
2022-09-26T08:11:31.154Z,7.50
2022-09-26T08:13:33.399Z,10.55
2022-09-26T08:15:35.062Z,5.75
2022-09-26T08:17:38.228Z,9.20
2022-09-26T08:19:40.011Z,5.40
2022-09-26T08:21:41.677Z,12.77
2022-09-26T08:23:43.528Z,6.43
2022-09-26T08:25:45.953Z,5.22
2022-09-26T08:27:48.601Z,5.85
2022-09-26T08:29:51.101Z,8.35
2022-09-26T08:31:53.577Z,8.77
2022-09-26T08:33:55.989Z,9.85
2022-09-26T08:36:03.246Z,9.80
2022-09-26T08:38:07.071Z,13.13
2022-09-26T08:40:09.110Z,9.95
2022-09-26T08:42:33.058Z,13.73
2022-09-26T08:44:42.257Z,20.63
2022-09-26T08:46:53.231Z,10.95
2022-09-26T08:49:20.098Z,13.10
2022-09-26T08:51:36.321Z,12.57
2022-09-26T08:53:50.130Z,12.23
2022-09-26T08:55:53.822Z,14.30
2022-09-26T08:58:29.044Z,15.32
2022-09-26T09:00:33.496Z,15.07
2022-09-26T09:02:41.424Z,11.25
2022-09-26T09:05:13.186Z,18.33
2022-09-26T09:07:32.127Z,16.60
2022-09-26T09:09:40.944Z,13.10
2022-09-26T09:12:04.139Z,13.27
2022-09-26T09:14:39.534Z,15.88
2022-09-26T09:17:07.142Z,15.95
2022-09-26T09:20:24.928Z,19.23
2022-09-26T09:23:09.946Z,26.15
2022-09-26T09:25:38.501Z,20.98
2022-09-26T09:28:20.949Z,17.33
2022-09-26T09:30:40.625Z,19.27
2022-09-26T09:32:53.592Z,18.42
2022-09-26T09:35:08.986Z,22.40
2022-09-26T09:37:42.148Z,18.67
2022-09-26T09:39:58.897Z,18.13
2022-09-26T09:42:18.608Z,16.55
2022-09-26T09:44:47.206Z,21.33
2022-09-26T09:46:51.601Z,19.33
2022-09-26T09:49:02.538Z,24.60
2022-09-26T09:51:22.033Z,21.90
2022-09-26T09:53:59.599Z,22.38
2022-09-26T09:56:09.678Z,21.15
2022-09-26T09:58:13.187Z,24.17
2022-09-26T10:00:18.228Z,22.38
2022-09-26T10:02:37.669Z,23.00
2022-09-26T10:04:46.714Z,16.67
2022-09-26T10:06:49.294Z,17.45
2022-09-26T10:08:52.071Z,16.13
2022-09-26T10:11:13.539Z,19.67
2022-09-26T10:13:18.075Z,18.42
2022-09-26T10:15:26.473Z,15.43
2022-09-26T10:17:30.121Z,25.25
2022-09-26T10:19:37.760Z,19.80
2022-09-26T10:21:43.824Z,19.33
2022-09-26T10:23:51.063Z,20.85
2022-09-26T10:25:59.595Z,19.38
2022-09-26T10:28:05.375Z,22.95
2022-09-26T10:30:24.167Z,16.35
2022-09-26T10:32:29.317Z,23.42
2022-09-26T10:34:33.875Z,19.90
2022-09-26T10:36:38.113Z,22.08
2022-09-26T10:39:03.270Z,24.40
2022-09-26T10:41:06.343Z,15.02
2022-09-26T10:43:19.473Z,13.95
2022-09-26T10:45:27.502Z,12.88
2022-09-26T10:47:31.591Z,18.25
2022-09-26T10:49:43.396Z,14.70
2022-09-26T10:51:54.728Z,13.73
2022-09-26T10:54:05.591Z,14.65
2022-09-26T10:56:13.208Z,19.27
2022-09-26T10:58:28.019Z,9.80
2022-09-26T11:00:42.260Z,11.45
2022-09-26T11:02:47.378Z,12.50
2022-09-26T11:05:04.532Z,19.08
2022-09-26T11:07:10.027Z,12.20
2022-09-26T11:09:18.667Z,12.10
2022-09-26T11:11:22.487Z,13.77
2022-09-26T11:13:28.289Z,9.23
2022-09-26T11:15:30.349Z,13.63
2022-09-26T11:17:50.477Z,13.35
2022-09-26T11:20:02.430Z,14.68
2022-09-26T11:22:17.982Z,14.57
2022-09-26T11:24:37.552Z,10.40
2022-09-26T11:26:49.592Z,10.27
2022-09-26T11:28:55.802Z,12.38
2022-09-26T11:31:03.291Z,15.50
2022-09-26T11:33:13.688Z,12.70
2022-09-26T11:35:29.118Z,8.50
2022-09-26T11:37:51.090Z,10.25
2022-09-26T11:40:13.239Z,9.95
2022-09-26T11:42:34.944Z,14.50
2022-09-26T11:44:46.654Z,10.30
2022-09-26T11:47:07.899Z,8.07
2022-09-26T11:49:28.556Z,8.48
2022-09-26T11:51:55.648Z,6.25
2022-09-26T11:54:19.235Z,6.32
2022-09-26T11:56:37.202Z,11.35
2022-09-26T11:58:46.958Z,9.60
2022-09-26T12:01:00.034Z,6.93
2022-09-26T12:03:21.158Z,8.30
2022-09-26T12:05:33.472Z,5.68
2022-09-26T12:07:48.726Z,7.55
2022-09-26T12:09:58.871Z,8.38
2022-09-26T12:12:10.694Z,6.47
2022-09-26T12:14:35.249Z,3.35
2022-09-26T12:16:55.340Z,3.88
2022-09-26T12:19:16.846Z,4.30
2022-09-26T12:21:42.920Z,5.43
2022-09-26T12:23:58.094Z,5.93
2022-09-26T12:26:10.796Z,7.15
2022-09-26T12:28:20.136Z,6.22
2022-09-26T12:30:30.287Z,5.32
2022-09-26T12:32:52.350Z,3.95
2022-09-26T12:35:19.227Z,4.90
2022-09-26T12:37:32.640Z,7.65
2022-09-26T12:39:53.829Z,5.68
2022-09-26T12:42:06.118Z,8.55
2022-09-26T12:44:22.736Z,6.78
2022-09-26T12:46:43.615Z,5.25
2022-09-26T12:48:56.178Z,5.80
2022-09-26T12:51:20.647Z,7.78
2022-09-26T12:53:40.657Z,3.83
2022-09-26T12:55:53.146Z,7.23
2022-09-26T12:58:06.154Z,7.75
2022-09-26T13:00:18.741Z,7.68
2022-09-26T13:02:41.015Z,6.22
2022-09-26T13:05:01.237Z,7.10
2022-09-26T13:07:22.647Z,5.20
2022-09-26T13:09:36.878Z,7.25
2022-09-26T13:11:52.197Z,2.35
2022-09-26T13:14:13.468Z,4.75
2022-09-26T13:16:16.919Z,5.38
2022-09-26T13:18:33.131Z,4.72
2022-09-26T13:20:41.424Z,4.35
2022-09-26T13:22:50.660Z,2.97
2022-09-26T13:25:01.472Z,5.38
2022-09-26T13:27:21.418Z,4.60
2022-09-26T13:29:31.074Z,5.00
2022-09-26T13:31:40.440Z,9.60
2022-09-26T13:33:45.625Z,5.90
2022-09-26T13:35:51.789Z,7.88
2022-09-26T13:38:06.142Z,4.03
2022-09-26T13:40:22.861Z,4.15
2022-09-26T13:42:38.331Z,2.53
2022-09-26T13:45:01.741Z,3.58
2022-09-26T13:47:20.080Z,4.00
2022-09-26T13:49:43.170Z,5.30
2022-09-26T13:51:51.187Z,2.65
2022-09-26T13:54:05.748Z,1.83
2022-09-26T13:56:34.098Z,2.47
2022-09-26T13:58:40.025Z,3.25
2022-09-26T14:00:49.339Z,3.50
2022-09-26T14:03:14.009Z,7.30
2022-09-26T14:05:18.431Z,4.18
2022-09-26T14:07:44.649Z,4.25
2022-09-26T14:10:02.714Z,9.40
2022-09-26T14:12:22.307Z,4.00
2022-09-26T14:14:37.660Z,6.25
2022-09-26T14:16:39.450Z,7.70
2022-09-26T14:18:53.959Z,6.95
2022-09-26T14:20:56.212Z,4.95
2022-09-26T14:22:58.679Z,4.95
2022-09-26T14:25:24.909Z,5.95
2022-09-26T14:27:36.455Z,8.75
2022-09-26T14:29:46.991Z,5.05
2022-09-26T14:32:11.043Z,5.88
2022-09-26T14:34:23.673Z,2.80
2022-09-26T14:36:34.963Z,5.68
2022-09-26T14:38:40.521Z,5.15
2022-09-26T14:40:55.884Z,4.18
2022-09-26T14:43:00.032Z,7.22
2022-09-26T14:45:10.273Z,9.75
2022-09-26T14:47:16.424Z,8.65
2022-09-26T14:49:28.144Z,6.40
2022-09-26T14:51:33.065Z,4.35
2022-09-26T14:53:40.557Z,15.07
2022-09-26T14:56:31.634Z,7.20
2022-09-26T15:00:43.685Z,8.30
2022-09-26T15:02:48.408Z,8.50
2022-09-26T15:05:06.971Z,6.32
2022-09-26T15:07:16.352Z,7.43
2022-09-26T15:09:43.910Z,9.23
2022-09-26T15:11:54.662Z,9.40
2022-09-26T15:16:09.914Z,7.15
2022-09-26T15:18:37.809Z,9.30
2022-09-26T15:20:44.485Z,9.70
2022-09-26T15:22:47.919Z,8.48
2022-09-26T15:25:24.067Z,7.60
2022-09-26T15:27:29.311Z,5.20
2022-09-26T15:29:42.471Z,8.02
2022-09-26T15:31:45.342Z,4.82
2022-09-26T15:33:56.461Z,6.97
2022-09-26T15:36:01.448Z,7.53
2022-09-26T15:38:10.133Z,8.70
2022-09-26T15:40:21.318Z,6.93
2022-09-26T15:42:47.345Z,7.13
2022-09-26T15:45:15.806Z,7.63
2022-09-26T15:47:46.934Z,6.32
2022-09-26T15:50:15.580Z,6.85
2022-09-26T15:52:17.636Z,8.30
2022-09-26T15:54:26.397Z,9.93
2022-09-26T15:56:47.646Z,5.93
2022-09-26T15:59:11.408Z,9.95
2022-09-26T16:01:21.481Z,7.28
2022-09-26T16:04:01.913Z,7.47
2022-09-26T16:06:08.921Z,4.35
2022-09-26T16:08:23.211Z,6.32
2022-09-26T16:10:29.706Z,5.97
2022-09-26T16:12:32.607Z,7.05
2022-09-26T16:14:41.355Z,7.10
2022-09-26T16:16:43.071Z,5.50
2022-09-26T16:18:55.806Z,4.20
2022-09-26T16:21:23.255Z,7.75
2022-09-26T16:23:27.238Z,8.52
2022-09-26T16:25:47.694Z,5.43
2022-09-26T16:28:10.370Z,6.22
2022-09-26T16:30:36.366Z,3.25
2022-09-26T16:32:38.313Z,5.47
2022-09-26T16:34:39.983Z,6.40
2022-09-26T16:36:45.337Z,5.13
2022-09-26T16:38:56.837Z,4.60
2022-09-26T16:41:08.812Z,3.20
2022-09-26T16:43:14.686Z,5.45
2022-09-26T16:45:16.637Z,3.47
2022-09-26T16:47:33.535Z,5.63
2022-09-26T16:49:46.133Z,1.95
2022-09-26T16:52:43.524Z,2.40
2022-09-26T16:54:45.460Z,2.33
2022-09-26T16:56:53.582Z,2.65
2022-09-26T16:58:59.834Z,3.50
2022-09-26T17:01:20.252Z,5.47
2022-09-26T17:03:28.197Z,4.95
2022-09-26T17:05:30.082Z,4.38
2022-09-26T17:07:32.088Z,3.00
2022-09-26T17:09:34.679Z,3.58
2022-09-26T17:11:36.321Z,3.80
2022-09-26T17:13:40.034Z,2.92
2022-09-26T17:15:48.578Z,3.55
2022-09-26T17:17:54.175Z,1.83
2022-09-26T17:19:59.378Z,7.78
2022-09-26T17:22:01.593Z,1.98
2022-09-26T17:24:06.812Z,4.88
2022-09-26T17:26:16.218Z,10.20
2022-09-26T17:28:21.016Z,3.10
2022-09-26T17:30:23.443Z,5.18
2022-09-26T17:32:37.262Z,6.70
2022-09-26T17:35:09.343Z,4.47
2022-09-26T17:37:21.693Z,5.70
2022-09-26T17:39:27.601Z,4.38
2022-09-26T17:41:31.389Z,3.90
2022-09-26T17:43:34.057Z,3.97
2022-09-26T17:45:42.144Z,4.00
2022-09-26T17:47:44.450Z,4.82
2022-09-26T17:49:51.721Z,4.13
2022-09-26T17:51:56.880Z,8.90
2022-09-26T17:53:58.726Z,5.82
2022-09-26T17:56:03.138Z,3.85
2022-09-26T17:58:10.329Z,6.93
2022-09-26T18:00:16.017Z,4.95
2022-09-26T18:02:31.109Z,6.30
2022-09-26T18:04:32.984Z,5.78
2022-09-26T18:06:34.763Z,3.22
2022-09-26T18:08:38.825Z,4.00
2022-09-26T18:10:45.891Z,3.92
2022-09-26T18:12:57.534Z,6.30
2022-09-26T18:15:06.416Z,6.43
2022-09-26T18:17:16.224Z,3.83
2022-09-26T18:19:20.922Z,3.00
2022-09-26T18:21:24.377Z,6.53
2022-09-26T18:23:30.025Z,5.00
2022-09-26T18:25:34.045Z,3.20
2022-09-26T18:27:39.679Z,5.53
2022-09-26T18:29:44.614Z,5.38
2022-09-26T18:31:46.668Z,6.85
2022-09-26T18:33:48.473Z,8.80
2022-09-26T18:35:50.754Z,9.57
2022-09-26T18:37:55.374Z,8.65
2022-09-26T18:40:01.410Z,10.10
2022-09-26T18:42:09.319Z,8.32
2022-09-26T18:44:16.729Z,6.93
2022-09-26T18:46:18.984Z,10.70
2022-09-26T18:48:20.588Z,11.30
2022-09-26T18:50:34.286Z,5.72
2022-09-26T18:52:36.195Z,4.07
2022-09-26T18:54:38.257Z,8.85
2022-09-26T18:56:58.373Z,8.20
2022-09-26T18:59:00.054Z,10.48
2022-09-26T19:01:07.923Z,7.78
2022-09-26T19:03:09.624Z,7.90
2022-09-26T19:05:16.054Z,6.35
2022-09-26T19:07:21.246Z,4.53
2022-09-26T19:09:23.229Z,7.07
2022-09-26T19:11:29.159Z,5.90
2022-09-26T19:13:31.933Z,6.97
2022-09-26T19:15:33.728Z,5.43
2022-09-26T19:17:35.438Z,7.15
2022-09-26T19:19:37.126Z,6.53
2022-09-26T19:21:50.419Z,5.82
2022-09-26T19:23:52.764Z,5.15
2022-09-26T19:25:54.448Z,8.73
2022-09-26T19:27:56.283Z,9.48
2022-09-26T19:30:27.513Z,5.72
2022-09-26T19:32:46.566Z,5.68
2022-09-26T19:35:08.720Z,3.85
2022-09-26T19:37:13.106Z,6.18
2022-09-26T19:39:16.130Z,8.95
2022-09-26T19:41:17.819Z,5.45
2022-09-26T19:43:21.509Z,7.68
2022-09-26T19:45:24.155Z,5.90
2022-09-26T19:47:33.633Z,3.63
2022-09-26T19:49:35.382Z,3.33
2022-09-26T19:51:39.890Z,6.15
2022-09-26T19:53:41.704Z,3.38
2022-09-26T19:55:44.407Z,4.70
2022-09-26T19:57:56.364Z,3.38
2022-09-26T19:59:58.042Z,5.95
2022-09-26T20:02:00.474Z,6.10
2022-09-26T20:04:02.483Z,8.32
2022-09-26T20:06:21.574Z,6.50
2022-09-26T20:08:25.699Z,5.88
2022-09-26T20:10:27.433Z,3.45
2022-09-26T20:12:29.095Z,5.97
2022-09-26T20:14:30.777Z,1.42
2022-09-26T20:16:34.776Z,3.85
2022-09-26T20:18:37.270Z,2.47
2022-09-26T20:20:39.592Z,4.70
2022-09-26T20:22:43.114Z,2.17
2022-09-26T20:24:49.910Z,3.75
2022-09-26T20:26:52.551Z,7.78
2022-09-26T20:28:54.699Z,6.72
2022-09-26T20:30:58.463Z,3.92
2022-09-26T20:33:00.375Z,5.32
2022-09-26T20:35:03.467Z,6.90
2022-09-26T20:37:05.562Z,8.88
2022-09-26T20:39:15.298Z,7.18
2022-09-26T20:41:23.775Z,9.63
2022-09-26T20:43:38.805Z,5.85
2022-09-26T20:45:44.024Z,4.93
2022-09-26T20:47:46.249Z,1.83
2022-09-26T20:49:53.040Z,2.40
2022-09-26T20:51:56.568Z,2.33
2022-09-26T20:54:08.799Z,4.40
2022-09-26T20:56:18.676Z,4.18
2022-09-26T20:58:20.507Z,3.83
2022-09-26T21:00:22.147Z,7.35
2022-09-26T21:02:37.033Z,2.28
2022-09-26T21:04:38.848Z,4.75
2022-09-26T21:06:40.910Z,3.28
2022-09-26T21:08:43.207Z,3.72
2022-09-26T21:10:44.870Z,6.00
2022-09-26T21:12:46.499Z,3.33
2022-09-26T21:14:48.215Z,3.25
2022-09-26T21:16:52.180Z,1.42
2022-09-26T21:18:53.872Z,4.20
2022-09-26T21:21:04.095Z,2.08
2022-09-26T21:23:08.662Z,4.55
2022-09-26T21:25:16.615Z,4.68
2022-09-26T21:27:21.718Z,4.50
2022-09-26T21:29:23.375Z,3.70
2022-09-26T21:31:31.881Z,2.40
2022-09-26T21:33:34.138Z,4.75
2022-09-26T21:35:38.332Z,7.55
2022-09-26T21:37:44.208Z,4.90
2022-09-26T21:39:46.195Z,7.43
2022-09-26T21:41:57.717Z,5.07
2022-09-26T21:44:22.170Z,5.25
2022-09-26T21:46:25.084Z,5.00
2022-09-26T21:48:28.080Z,3.50
2022-09-26T21:50:30.413Z,2.33
2022-09-26T21:52:37.332Z,2.53
2022-09-26T21:54:43.427Z,4.05
2022-09-26T21:56:58.897Z,4.38
2022-09-26T21:59:00.687Z,3.05
2022-09-26T22:01:02.546Z,2.50
2022-09-26T22:03:04.293Z,4.43
2022-09-26T22:05:08.888Z,1.70
2022-09-26T22:07:10.785Z,3.95
2022-09-26T22:09:13.623Z,2.15
2022-09-26T22:11:15.411Z,3.70
2022-09-26T22:13:17.168Z,4.68
2022-09-26T22:15:19.291Z,4.30
2022-09-26T22:17:21.067Z,4.72
2022-09-26T22:19:23.333Z,1.83
2022-09-26T22:21:31.848Z,3.15
2022-09-26T22:23:34.898Z,1.95
2022-09-26T22:25:42.120Z,6.43
2022-09-26T22:27:44.743Z,2.00
2022-09-26T22:29:46.991Z,3.90
2022-09-26T22:31:48.784Z,4.32
2022-09-26T22:33:50.454Z,5.22
2022-09-26T22:35:52.120Z,4.38
2022-09-26T22:37:53.901Z,2.42
2022-09-26T22:39:55.731Z,3.05
2022-09-26T22:41:57.490Z,2.75
2022-09-26T22:43:59.561Z,2.10
2022-09-26T22:46:04.030Z,7.97
2022-09-26T22:48:05.706Z,2.78
2022-09-26T22:50:07.709Z,5.03
2022-09-26T22:52:09.471Z,5.32
2022-09-26T22:54:11.195Z,5.15
2022-09-26T22:56:15.042Z,3.92
2022-09-26T22:58:16.672Z,2.25
2022-09-26T23:00:19.742Z,5.28
2022-09-26T23:02:21.798Z,5.18
2022-09-26T23:04:23.876Z,2.72
2022-09-26T23:06:26.754Z,4.93
2022-09-26T23:08:28.874Z,2.28
2022-09-26T23:10:31.122Z,1.58
2022-09-26T23:12:33.135Z,5.05
2022-09-26T23:14:35.207Z,5.28
2022-09-26T23:16:38.881Z,3.92
2022-09-26T23:18:41.840Z,1.35
2022-09-26T23:20:44.606Z,2.85
2022-09-26T23:22:46.629Z,4.25
2022-09-26T23:24:48.614Z,5.90
2022-09-26T23:26:51.142Z,3.58
2022-09-26T23:28:55.252Z,8.15
2022-09-26T23:31:11.755Z,8.35
2022-09-26T23:33:13.954Z,5.22
2022-09-26T23:35:16.365Z,4.60
2022-09-26T23:37:18.682Z,7.13
2022-09-26T23:39:20.700Z,8.55
2022-09-26T23:41:22.976Z,3.10
2022-09-26T23:43:25.334Z,4.95
2022-09-26T23:45:27.691Z,5.25
2022-09-26T23:47:29.711Z,6.10
2022-09-26T23:49:31.767Z,2.03
2022-09-26T23:51:33.963Z,6.75
2022-09-26T23:53:36.369Z,6.07
2022-09-26T23:55:38.277Z,4.75
2022-09-26T23:57:40.340Z,4.55
2022-09-26T23:59:42.327Z,6.35
